Rechercher aéroport 
image banner adimage banner ad
image banner ad

SSKX - Fazenda São Luíz do Matão Airport

Situé à Carneirinho, Brazil

ICAO - SSKX, IATA -

Données fournies par Airmate  

Information générale

Coordonnées: S11°25'19" W37°19'25"
Élévation : 9 feet MSL.
Variation magnétique : -23° East
Voir autres Aéroports à Sergipe

Données opérationnelles

Accessible au public
Heure actuelle UTC:
Heure actuelle locale:
Météo à : SBAR - Santa Maria ( 56 km )
METAR: SBAR 290100Z 09010KT 9999 SCT015 26/21 Q1015
TAF: TAF SBAR 282115Z 2900/2924 12007KT 9999 SCT017 TN25/2908Z TX29/2917Z BECMG 2900/2902 09005KT BECMG 2910/2912 28003KT BECMG 2912/2914 12010KT BECMG 2918/2920 14007KT RMK PGW
Voir NOTAMs / SUP AIP / TFR affectant cet aéroport [VIEW]
Fréquences de communication: [VIEW]

Pistes:

Identifiant RWYQFULongueur (ft)Largeur (ft)SurfaceLDA (ft)
13164059DIRT
31164059DIRT

Coordonnées de l'aéroport

Adresse: Carneirinho Brazil

Vue satellite de SSKX